createdAt,value
2018-07-28T00:02:19.630Z,98259.70
2018-07-28T00:04:47.938Z,98255.73
2018-07-28T00:07:16.227Z,98254.08
2018-07-28T00:09:44.523Z,98250.54
2018-07-28T00:12:12.815Z,98253.81
2018-07-28T00:14:41.217Z,98245.47
2018-07-28T00:17:09.734Z,98243.61
2018-07-28T00:19:38.029Z,98243.16
2018-07-28T00:22:06.315Z,98241.75
2018-07-28T00:24:34.593Z,98241.31
2018-07-28T00:27:02.852Z,98241.04
2018-07-28T00:29:31.156Z,98236.36
2018-07-28T00:31:59.420Z,98240.50
2018-07-28T00:34:27.724Z,98243.54
2018-07-28T00:36:56.004Z,98234.25
2018-07-28T00:39:24.320Z,98236.04
2018-07-28T00:41:52.574Z,98236.44
2018-07-28T00:44:21.088Z,98230.57
2018-07-28T00:46:49.357Z,98231.38
2018-07-28T00:49:17.638Z,98223.16
2018-07-28T00:51:46.012Z,98232.34
2018-07-28T00:54:14.351Z,98229.16
2018-07-28T00:56:44.067Z,98233.18
2018-07-28T00:59:12.359Z,98233.33
2018-07-28T01:01:40.785Z,98228.55
2018-07-28T01:04:09.098Z,98228.53
2018-07-28T01:06:37.350Z,98215.38
2018-07-28T01:09:08.355Z,98212.31
2018-07-28T01:11:36.795Z,98207.68
2018-07-28T01:14:05.173Z,98197.23
2018-07-28T01:16:33.470Z,98193.91
2018-07-28T01:19:01.771Z,98199.09
2018-07-28T01:21:30.080Z,98194.27
2018-07-28T01:23:58.489Z,98190.72
2018-07-28T01:26:26.831Z,98195.53
2018-07-28T01:29:00.511Z,98201.04
2018-07-28T01:31:28.914Z,98190.79
2018-07-28T01:33:57.206Z,98192.32
2018-07-28T01:36:25.471Z,98196.95
2018-07-28T01:38:53.834Z,98195.37
2018-07-28T01:41:22.097Z,98191.11
2018-07-28T01:43:50.424Z,98191.66
2018-07-28T01:46:18.717Z,98189.61
2018-07-28T01:48:47.015Z,98182.92
2018-07-28T01:51:15.326Z,98182.84
2018-07-28T01:53:43.615Z,98177.41
2018-07-28T01:56:11.911Z,98180.41
2018-07-28T01:58:40.221Z,98174.59
2018-07-28T02:01:08.517Z,98172.59
2018-07-28T02:03:36.810Z,98169.68
2018-07-28T02:06:05.093Z,98156.45
2018-07-28T02:08:33.451Z,98145.86
2018-07-28T02:11:01.760Z,98144.51
2018-07-28T02:13:30.070Z,98143.59
2018-07-28T02:15:58.399Z,98147.54
2018-07-28T02:18:26.683Z,98140.62
2018-07-28T02:20:55.190Z,98137.39
2018-07-28T02:23:23.574Z,98135.27
2018-07-28T02:25:51.858Z,98129.67
2018-07-28T02:28:20.131Z,98132.61
2018-07-28T02:30:48.495Z,98132.36
2018-07-28T02:33:17.053Z,98127.69
2018-07-28T02:35:45.340Z,98129.64
2018-07-28T02:38:13.660Z,98130.69
2018-07-28T02:40:41.927Z,98132.13
2018-07-28T02:43:10.218Z,98127.80
2018-07-28T02:45:38.534Z,98132.69
2018-07-28T02:48:06.838Z,98121.15
2018-07-28T02:50:35.264Z,98117.54
2018-07-28T02:53:03.742Z,98113.07
2018-07-28T02:55:32.098Z,98113.69
2018-07-28T02:58:00.391Z,98112.83
2018-07-28T03:00:28.704Z,98119.73
2018-07-28T03:02:57.007Z,98112.31
2018-07-28T03:05:25.407Z,98113.11
2018-07-28T03:07:53.814Z,98112.75
2018-07-28T03:10:22.147Z,98110.16
2018-07-28T03:12:50.505Z,98111.85
2018-07-28T03:15:30.441Z,98107.05
2018-07-28T03:17:59.873Z,98105.80
2018-07-28T03:20:28.230Z,98110.63
2018-07-28T03:22:56.519Z,98109.62
2018-07-28T03:25:25.192Z,98109.79
2018-07-28T03:27:53.810Z,98106.94
2018-07-28T03:30:22.128Z,98106.31
2018-07-28T03:32:50.470Z,98108.57
2018-07-28T03:35:18.788Z,98105.33
2018-07-28T03:37:47.366Z,98108.83
2018-07-28T03:40:15.711Z,98105.23
2018-07-28T03:42:44.003Z,98096.55
2018-07-28T03:45:12.367Z,98096.77
2018-07-28T03:47:41.718Z,98091.35
2018-07-28T03:50:10.403Z,98091.04
2018-07-28T03:52:38.746Z,98094.57
2018-07-28T03:55:07.846Z,98089.89
2018-07-28T03:57:36.226Z,98091.22
2018-07-28T04:00:07.788Z,98087.92
2018-07-28T04:02:36.247Z,98090.73
2018-07-28T04:05:05.693Z,98095.61
2018-07-28T04:07:33.972Z,98085.58
2018-07-28T04:10:02.321Z,98085.17
2018-07-28T04:12:30.658Z,98084.66
2018-07-28T04:14:58.983Z,98080.55
2018-07-28T04:17:27.475Z,98083.20
2018-07-28T04:19:56.371Z,98078.64
2018-07-28T04:22:24.807Z,98086.85
2018-07-28T04:24:53.177Z,98079.92
2018-07-28T04:27:21.474Z,98087.06
2018-07-28T04:29:49.813Z,98081.03
2018-07-28T04:32:18.167Z,98084.53
2018-07-28T04:34:46.599Z,98075.25
2018-07-28T04:37:14.930Z,98082.20
2018-07-28T04:39:43.221Z,98081.37
2018-07-28T04:42:11.506Z,98079.31
2018-07-28T04:44:39.891Z,98075.95
2018-07-28T04:47:08.167Z,98073.47
2018-07-28T04:49:36.433Z,98079.08
2018-07-28T04:52:04.726Z,98082.73
2018-07-28T04:54:32.999Z,98082.52
2018-07-28T04:57:01.436Z,98081.86
2018-07-28T04:59:29.746Z,98070.87
2018-07-28T05:01:58.105Z,98069.73
2018-07-28T05:04:26.403Z,98056.81
2018-07-28T05:06:54.738Z,98055.23
2018-07-28T05:09:23.063Z,98057.11
2018-07-28T05:11:51.380Z,98054.30
2018-07-28T05:14:19.829Z,98050.52
2018-07-28T05:16:48.104Z,98054.20
2018-07-28T05:19:16.809Z,98050.14
2018-07-28T05:21:45.237Z,98049.00
2018-07-28T05:24:13.591Z,98053.55
2018-07-28T05:26:41.906Z,98049.88
2018-07-28T05:29:10.232Z,98039.91
2018-07-28T05:31:38.840Z,98040.22
2018-07-28T05:34:07.194Z,98037.02
2018-07-28T05:36:35.492Z,98033.72
2018-07-28T05:39:08.208Z,98030.34
2018-07-28T05:41:36.891Z,98030.80
2018-07-28T05:44:05.266Z,98026.69
2018-07-28T05:46:33.588Z,98025.52
2018-07-28T05:49:01.998Z,98024.27
2018-07-28T05:51:30.730Z,98020.95
2018-07-28T05:53:59.181Z,98025.98
2018-07-28T05:56:27.510Z,98033.45
2018-07-28T05:58:55.937Z,98028.93
2018-07-28T06:01:24.274Z,98031.84
2018-07-28T06:03:52.780Z,98028.36
2018-07-28T06:06:21.116Z,98032.95
2018-07-28T06:08:49.520Z,98031.12
2018-07-28T06:11:17.911Z,98034.34
2018-07-28T06:13:46.613Z,98031.95
2018-07-28T06:16:15.029Z,98031.84
2018-07-28T06:18:43.478Z,98018.92
2018-07-28T06:21:12.791Z,98015.32
2018-07-28T06:23:43.465Z,98011.05
2018-07-28T06:26:13.234Z,98011.95
2018-07-28T06:28:41.768Z,98015.56
2018-07-28T06:31:10.671Z,98012.19
2018-07-28T06:33:39.172Z,98014.85
2018-07-28T06:36:07.755Z,98013.69
2018-07-28T06:38:36.775Z,98017.92
2018-07-28T06:41:05.295Z,98007.43
2018-07-28T06:43:33.700Z,98010.44
2018-07-28T06:46:02.187Z,98008.12
2018-07-28T06:48:30.586Z,98009.44
2018-07-28T06:50:58.880Z,98003.20
2018-07-28T06:53:27.190Z,98005.70
2018-07-28T06:55:55.475Z,97996.95
2018-07-28T06:58:23.867Z,97999.35
2018-07-28T07:00:52.219Z,97995.36
2018-07-28T07:03:20.597Z,97999.78
2018-07-28T07:05:48.937Z,97997.80
2018-07-28T07:08:17.230Z,97994.70
2018-07-28T07:10:45.613Z,98003.58
2018-07-28T07:13:13.920Z,97999.26
2018-07-28T07:15:42.667Z,97999.45
2018-07-28T07:18:11.111Z,98001.17
2018-07-28T07:20:39.553Z,97999.28
2018-07-28T07:23:07.872Z,97992.56
2018-07-28T07:25:37.308Z,97991.52
2018-07-28T07:28:05.595Z,97988.52
2018-07-28T07:30:34.020Z,97985.50
2018-07-28T07:33:02.279Z,97991.25
2018-07-28T07:35:30.584Z,97981.34
2018-07-28T07:37:58.925Z,97982.48
2018-07-28T07:40:27.243Z,97984.05
2018-07-28T07:42:55.526Z,97982.39
2018-07-28T07:45:23.831Z,97982.91
2018-07-28T07:47:52.126Z,97972.78
2018-07-28T07:50:20.443Z,97966.89
2018-07-28T07:52:48.833Z,97974.39
2018-07-28T07:55:17.117Z,97978.14
2018-07-28T07:57:45.413Z,97971.56
2018-07-28T08:00:13.906Z,97971.07
2018-07-28T08:02:42.250Z,97977.84
2018-07-28T08:05:10.894Z,97979.21
2018-07-28T08:07:39.242Z,97984.58
2018-07-28T08:10:07.543Z,97983.45
2018-07-28T08:15:14.466Z,97973.38
2018-07-28T08:17:42.759Z,97969.00
2018-07-28T08:20:11.166Z,97980.36
2018-07-28T08:22:39.543Z,97971.36
2018-07-28T08:25:07.857Z,97969.19
2018-07-28T08:27:36.432Z,97965.13
2018-07-28T08:30:05.816Z,97964.67
2018-07-28T08:32:34.155Z,97955.81
2018-07-28T08:35:02.430Z,97950.34
2018-07-28T08:37:30.811Z,97949.30
2018-07-28T08:39:59.288Z,97945.55
2018-07-28T08:42:27.882Z,97940.05
2018-07-28T08:44:56.430Z,97957.11
2018-07-28T08:47:25.010Z,97951.33
2018-07-28T08:49:53.722Z,97957.31
2018-07-28T08:52:22.347Z,97953.53
2018-07-28T08:54:50.852Z,97961.21
2018-07-28T08:57:19.263Z,97956.00
2018-07-28T08:59:47.619Z,97961.84
2018-07-28T09:02:16.121Z,97958.00
2018-07-28T09:04:44.500Z,97956.72
2018-07-28T09:07:12.903Z,97953.75
2018-07-28T09:09:41.242Z,97951.87
2018-07-28T09:12:09.646Z,97945.83
2018-07-28T09:14:37.935Z,97948.02
2018-07-28T09:17:06.292Z,97944.26
2018-07-28T09:19:34.559Z,97943.97
2018-07-28T09:22:02.850Z,97941.50
2018-07-28T09:24:31.159Z,97937.39
2018-07-28T09:26:59.479Z,97935.44
2018-07-28T09:29:27.794Z,97927.19
2018-07-28T09:31:56.070Z,97926.34
2018-07-28T09:34:24.449Z,97928.28
2018-07-28T09:36:52.787Z,97924.95
2018-07-28T09:39:21.134Z,97916.95
2018-07-28T09:41:49.429Z,97914.69
2018-07-28T09:44:17.969Z,97922.98
2018-07-28T09:46:46.296Z,97924.88
2018-07-28T09:49:14.574Z,97926.79
2018-07-28T09:51:42.887Z,97925.64
2018-07-28T09:54:11.145Z,97919.60
2018-07-28T09:56:39.479Z,97918.73
2018-07-28T09:59:07.742Z,97910.35
2018-07-28T10:01:36.136Z,97907.16
2018-07-28T10:04:04.569Z,97909.98
2018-07-28T10:06:32.871Z,97917.92
2018-07-28T10:09:01.196Z,97908.74
2018-07-28T10:11:29.498Z,97909.80
2018-07-28T10:13:57.771Z,97909.25
2018-07-28T10:16:26.119Z,97909.69
2018-07-28T10:18:54.405Z,97900.67
2018-07-28T10:21:22.753Z,97893.70
2018-07-28T10:23:51.079Z,97894.98
2018-07-28T10:26:19.483Z,97895.14
2018-07-28T10:28:47.842Z,97891.64
2018-07-28T10:31:16.161Z,97875.33
2018-07-28T10:33:44.478Z,97870.42
2018-07-28T10:36:12.828Z,97862.08
2018-07-28T10:38:41.075Z,97864.52
2018-07-28T10:41:09.368Z,97859.64
2018-07-28T10:43:37.677Z,97850.33
2018-07-28T10:46:06.590Z,97861.16
2018-07-28T10:48:34.897Z,97859.27
2018-07-28T10:51:03.270Z,97852.80
2018-07-28T10:53:31.578Z,97859.13
2018-07-28T10:55:59.887Z,97852.07
2018-07-28T10:58:28.218Z,97846.06
2018-07-28T11:00:56.507Z,97862.45
2018-07-28T11:03:24.783Z,97872.21
2018-07-28T11:05:53.429Z,97865.88
2018-07-28T11:08:21.842Z,97863.41
2018-07-28T11:10:50.139Z,97864.12
2018-07-28T11:13:18.499Z,97864.11
2018-07-28T11:15:46.814Z,97854.58
2018-07-28T11:18:15.126Z,97874.31
2018-07-28T11:20:43.400Z,97899.15
2018-07-28T11:23:13.450Z,97899.73
2018-07-28T11:25:41.788Z,97899.59
2018-07-28T11:28:10.070Z,97901.55
2018-07-28T11:30:38.370Z,97911.52
2018-07-28T11:33:18.109Z,97903.81
2018-07-28T11:35:57.634Z,97932.98
2018-07-28T11:38:37.442Z,97937.38
2018-07-28T11:41:16.955Z,97954.67
2018-07-28T11:43:56.513Z,97952.20
2018-07-28T11:46:24.828Z,97950.81
2018-07-28T11:48:53.251Z,97953.84
2018-07-28T11:51:21.554Z,97951.40
2018-07-28T11:53:49.996Z,97954.11
2018-07-28T11:56:18.306Z,97956.31
2018-07-28T11:58:46.736Z,97948.91
2018-07-28T12:01:15.180Z,97953.02
2018-07-28T12:03:43.478Z,97954.94
2018-07-28T12:06:11.757Z,97948.06
2018-07-28T12:08:40.099Z,97947.52
2018-07-28T12:11:08.400Z,97941.73
2018-07-28T12:13:36.768Z,97942.85
2018-07-28T12:16:05.314Z,97938.39
2018-07-28T12:18:33.653Z,97943.03
2018-07-28T12:21:01.929Z,97945.44
2018-07-28T12:23:30.322Z,97957.55
2018-07-28T12:25:58.627Z,97963.01
2018-07-28T12:28:26.966Z,97964.17
2018-07-28T12:30:55.282Z,97984.09
2018-07-28T12:33:23.796Z,97977.74
2018-07-28T12:35:52.206Z,97978.84
2018-07-28T12:38:20.514Z,97965.08
2018-07-28T12:40:48.914Z,97973.53
2018-07-28T12:43:17.311Z,97967.51
2018-07-28T12:45:45.662Z,97968.03
2018-07-28T12:48:14.099Z,97969.20
2018-07-28T12:50:42.445Z,97967.33
2018-07-28T12:53:10.762Z,97966.31
2018-07-28T12:55:39.135Z,97962.45
2018-07-28T12:58:07.488Z,97961.36
2018-07-28T13:00:35.790Z,97963.58
2018-07-28T13:03:04.060Z,97959.52
2018-07-28T13:05:32.366Z,97962.92
2018-07-28T13:08:00.643Z,97962.52
2018-07-28T13:10:28.930Z,97963.30
2018-07-28T13:12:57.314Z,97965.38
2018-07-28T13:15:25.694Z,97963.28
2018-07-28T13:17:54.039Z,97963.73
2018-07-28T13:20:22.421Z,97960.19
2018-07-28T13:22:50.686Z,97961.44
2018-07-28T13:25:18.998Z,97954.52
2018-07-28T13:27:47.269Z,97953.59
2018-07-28T13:30:15.626Z,97954.45
2018-07-28T13:32:43.911Z,97960.02
2018-07-28T13:35:12.202Z,97965.97
2018-07-28T13:37:40.543Z,97961.30
2018-07-28T13:40:08.856Z,97967.33
2018-07-28T13:42:37.167Z,97959.69
2018-07-28T13:45:05.647Z,97963.55
2018-07-28T13:47:34.940Z,97968.39
2018-07-28T13:50:03.464Z,97958.33
2018-07-28T13:52:31.951Z,97951.36
2018-07-28T13:55:01.205Z,97954.47
2018-07-28T13:57:29.654Z,97954.45
2018-07-28T13:59:58.700Z,97955.91
2018-07-28T14:02:27.178Z,97954.66
2018-07-28T14:04:55.544Z,97945.02
2018-07-28T14:07:25.039Z,97944.60
2018-07-28T14:09:55.402Z,97946.43
2018-07-28T14:12:23.854Z,97936.55
2018-07-28T14:14:52.331Z,97925.89
2018-07-28T14:17:23.602Z,97924.33
2018-07-28T14:19:54.285Z,97926.23
2018-07-28T14:22:22.874Z,97918.31
2018-07-28T14:24:51.441Z,97916.38
2018-07-28T14:27:20.793Z,97912.31
2018-07-28T14:29:49.445Z,97928.33
2018-07-28T14:32:18.075Z,97931.67
2018-07-28T14:34:46.547Z,97937.89
2018-07-28T14:37:17.630Z,97929.28
2018-07-28T14:39:46.167Z,97949.78
2018-07-28T14:42:16.060Z,97944.05
2018-07-28T14:44:44.435Z,97940.61
2018-07-28T14:47:13.006Z,97949.29
2018-07-28T14:49:41.458Z,97943.48
2018-07-28T14:52:09.975Z,97946.89
2018-07-28T14:54:39.113Z,97952.70
2018-07-28T14:57:07.642Z,97940.15
2018-07-28T14:59:36.736Z,97936.53
2018-07-28T15:02:05.552Z,97942.61
2018-07-28T15:04:34.312Z,97943.95
2018-07-28T15:07:02.698Z,97943.95
2018-07-28T15:09:31.302Z,97946.91
2018-07-28T15:11:59.803Z,97947.64
2018-07-28T15:14:28.702Z,97943.36
2018-07-28T15:16:59.394Z,97943.39
2018-07-28T15:19:29.828Z,97939.52
2018-07-28T15:21:58.430Z,97945.84
2018-07-28T15:24:28.776Z,97951.05
2018-07-28T15:26:57.382Z,97952.35
2018-07-28T15:29:26.062Z,97950.73
2018-07-28T15:31:57.303Z,97954.80
2018-07-28T15:34:26.263Z,97952.04
2018-07-28T15:36:54.950Z,97956.75
2018-07-28T15:39:23.190Z,97961.58
2018-07-28T15:41:51.596Z,97969.28
2018-07-28T15:44:19.863Z,97987.47
2018-07-28T15:46:48.708Z,97988.09
2018-07-28T15:49:17.077Z,97993.28
2018-07-28T15:51:45.803Z,97996.08
2018-07-28T15:54:14.511Z,98001.84
2018-07-28T15:56:42.939Z,97996.92
2018-07-28T15:59:11.257Z,98008.76
2018-07-28T16:01:40.094Z,98012.61
2018-07-28T16:04:08.467Z,98014.02
2018-07-28T16:06:40.336Z,98015.38
2018-07-28T16:09:10.210Z,98008.50
2018-07-28T16:11:39.402Z,98017.81
2018-07-28T16:14:08.097Z,98012.93
2018-07-28T16:16:38.334Z,98017.58
2018-07-28T16:19:07.028Z,98027.20
2018-07-28T16:21:35.327Z,98030.23
2018-07-28T16:24:03.602Z,98032.16
2018-07-28T16:26:31.962Z,98033.48
2018-07-28T16:29:00.303Z,98031.53
2018-07-28T16:31:28.658Z,98038.12
2018-07-28T16:33:57.935Z,98048.61
2018-07-28T16:36:26.232Z,98051.38
2018-07-28T16:38:54.838Z,98051.66
2018-07-28T16:41:23.145Z,98062.67
2018-07-28T16:43:51.450Z,98067.86
2018-07-28T16:46:19.787Z,98066.48
2018-07-28T16:48:48.126Z,98071.16
2018-07-28T16:51:17.143Z,98076.97
2018-07-28T16:53:45.416Z,98068.41
2018-07-28T16:56:13.766Z,98069.23
2018-07-28T16:58:42.045Z,98073.05
2018-07-28T17:01:10.372Z,98070.00
2018-07-28T17:03:38.942Z,98079.06
2018-07-28T17:06:07.256Z,98079.02
2018-07-28T17:08:36.180Z,98090.00
2018-07-28T17:11:04.595Z,98090.86
2018-07-28T17:13:32.908Z,98089.77
2018-07-28T17:16:01.242Z,98094.91
2018-07-28T17:18:29.545Z,98096.75
2018-07-28T17:20:58.188Z,98089.58
2018-07-28T17:23:26.475Z,98094.56
2018-07-28T17:25:55.241Z,98090.44
2018-07-28T17:28:23.565Z,98080.29
2018-07-28T17:30:51.984Z,98084.55
2018-07-28T17:33:20.270Z,98088.95
2018-07-28T17:35:48.571Z,98087.36
2018-07-28T17:38:17.486Z,98089.54
2018-07-28T17:40:45.832Z,98091.48
2018-07-28T17:43:14.467Z,98098.62
2018-07-28T17:45:42.810Z,98105.20
2018-07-28T17:48:11.106Z,98112.33
2018-07-28T17:50:39.568Z,98113.09
2018-07-28T17:53:07.920Z,98111.63
2018-07-28T17:55:36.894Z,98114.83
2018-07-28T17:58:05.264Z,98112.36
2018-07-28T18:00:34.332Z,98117.05
2018-07-28T18:03:02.682Z,98118.47
2018-07-28T18:05:31.528Z,98124.44
2018-07-28T18:07:59.863Z,98126.89
2018-07-28T18:10:28.127Z,98129.61
2018-07-28T18:12:56.476Z,98130.62
2018-07-28T18:15:25.461Z,98125.62
2018-07-28T18:17:53.788Z,98135.77
2018-07-28T18:20:22.819Z,98140.76
2018-07-28T18:22:51.153Z,98146.31
2018-07-28T18:25:19.428Z,98150.81
2018-07-28T18:27:47.774Z,98151.46
2018-07-28T18:30:16.236Z,98157.55
2018-07-28T18:32:44.926Z,98158.94
2018-07-28T18:35:13.226Z,98161.11
2018-07-28T18:37:41.777Z,98165.34
2018-07-28T18:40:10.164Z,98166.91
2018-07-28T18:42:38.519Z,98173.92
2018-07-28T18:45:06.881Z,98170.88
2018-07-28T18:47:36.651Z,98176.55
2018-07-28T18:50:05.240Z,98185.73
2018-07-28T18:52:33.534Z,98197.34
2018-07-28T18:55:06.484Z,98201.96
2018-07-28T18:57:34.787Z,98226.13
2018-07-28T19:00:03.141Z,98250.66
2018-07-28T19:02:31.579Z,98263.61
2018-07-28T19:05:00.007Z,98271.50
2018-07-28T19:07:28.860Z,98287.51
2018-07-28T19:09:57.176Z,98301.24
2018-07-28T19:12:30.797Z,98307.02
2018-07-28T19:14:59.374Z,98312.86
2018-07-28T19:17:33.148Z,98333.41
2018-07-28T19:20:01.589Z,98337.05
2018-07-28T19:23:38.447Z,98339.29
2018-07-28T19:26:06.986Z,98351.52
2018-07-28T19:28:40.711Z,98350.01
2018-07-28T19:31:09.309Z,98357.70
2018-07-28T19:33:37.926Z,98358.16
2018-07-28T19:37:14.136Z,98379.53
2018-07-28T19:39:42.426Z,98402.47
2018-07-28T19:42:16.148Z,98389.84
2018-07-28T19:44:44.451Z,98393.47
2018-07-28T19:47:12.893Z,98383.88
2018-07-28T19:49:41.343Z,98380.36
2018-07-28T19:52:09.714Z,98387.53
2018-07-28T19:54:38.912Z,98377.09
2018-07-28T19:57:07.226Z,98370.02
2018-07-28T19:59:36.543Z,98378.25
2018-07-28T20:02:04.878Z,98388.34
2018-07-28T20:04:33.489Z,98399.78
2018-07-28T20:07:01.833Z,98417.18
2018-07-28T20:09:30.264Z,98425.41
2018-07-28T20:11:58.823Z,98424.41
2018-07-28T20:16:54.952Z,98432.11
2018-07-28T20:19:23.470Z,98433.63
2018-07-28T20:21:51.795Z,98421.95
2018-07-28T20:24:20.129Z,98422.34
2018-07-28T20:26:49.189Z,98431.33
2018-07-28T20:29:18.012Z,98430.92
2018-07-28T20:31:46.432Z,98442.27
2018-07-28T20:34:16.366Z,98445.87
2018-07-28T20:36:44.684Z,98463.28
2018-07-28T20:39:14.791Z,98459.56
2018-07-28T20:41:43.103Z,98464.98
2018-07-28T20:44:12.094Z,98458.45
2018-07-28T20:46:40.476Z,98461.57
2018-07-28T20:49:10.807Z,98446.15
2018-07-28T20:51:39.246Z,98446.40
2018-07-28T20:54:07.548Z,98458.52
2018-07-28T20:56:35.856Z,98466.02
2018-07-28T20:59:05.150Z,98463.86
2018-07-28T21:01:33.500Z,98472.79
2018-07-28T21:04:02.508Z,98486.84
2018-07-28T21:06:31.184Z,98496.64
2018-07-28T21:08:59.631Z,98504.38
2018-07-28T21:11:27.903Z,98518.33
2018-07-28T21:13:56.255Z,98528.86
2018-07-28T21:16:25.708Z,98529.16
2018-07-28T21:18:54.066Z,98537.84
2018-07-28T21:21:23.389Z,98536.17
2018-07-28T21:23:51.763Z,98535.44
2018-07-28T21:26:20.044Z,98530.23
2018-07-28T21:28:48.731Z,98522.30
2018-07-28T21:31:17.051Z,98533.02
2018-07-28T21:33:45.379Z,98549.93
2018-07-28T21:36:13.695Z,98549.30
2018-07-28T21:38:42.098Z,98547.22
2018-07-28T21:41:10.415Z,98560.15
2018-07-28T21:43:38.720Z,98560.59
2018-07-28T21:46:07.094Z,98565.16
2018-07-28T21:48:35.474Z,98572.17
2018-07-28T21:51:03.795Z,98572.77
2018-07-28T21:53:32.072Z,98595.74
2018-07-28T21:56:00.446Z,98593.17
2018-07-28T21:58:28.911Z,98588.58
2018-07-28T22:00:57.777Z,98592.44
2018-07-28T22:03:27.124Z,98602.62
2018-07-28T22:05:55.430Z,98602.28
2018-07-28T22:08:23.726Z,98602.94
2018-07-28T22:10:52.083Z,98602.17
2018-07-28T22:13:20.641Z,98598.94
2018-07-28T22:15:49.239Z,98605.50
2018-07-28T22:18:17.590Z,98607.93
2018-07-28T22:20:45.956Z,98610.95
2018-07-28T22:23:14.475Z,98616.56
2018-07-28T22:25:43.077Z,98619.22
2018-07-28T22:28:11.687Z,98615.20
2018-07-28T22:30:40.291Z,98613.76
2018-07-28T22:33:08.786Z,98612.98
2018-07-28T22:35:37.409Z,98613.28
2018-07-28T22:38:12.171Z,98615.63
2018-07-28T22:40:40.826Z,98611.14
2018-07-28T22:43:12.659Z,98610.78
2018-07-28T22:45:41.436Z,98618.35
2018-07-28T22:48:10.138Z,98617.62
2018-07-28T22:50:38.701Z,98620.56
2018-07-28T22:53:07.479Z,98615.09
2018-07-28T22:55:35.808Z,98622.20
2018-07-28T22:58:04.198Z,98617.25
2018-07-28T23:00:32.526Z,98624.97
2018-07-28T23:03:00.831Z,98620.07
2018-07-28T23:05:29.318Z,98622.78
2018-07-28T23:07:57.653Z,98630.84
2018-07-28T23:10:25.978Z,98628.79
2018-07-28T23:12:54.292Z,98635.63
2018-07-28T23:15:22.575Z,98634.92
2018-07-28T23:17:50.886Z,98632.89
2018-07-28T23:20:19.224Z,98633.12
2018-07-28T23:22:47.533Z,98635.64
2018-07-28T23:25:15.870Z,98636.37
2018-07-28T23:27:44.297Z,98635.27
2018-07-28T23:30:12.667Z,98641.56
2018-07-28T23:32:40.987Z,98651.31
2018-07-28T23:35:09.693Z,98649.84
2018-07-28T23:37:38.070Z,98646.11
2018-07-28T23:40:06.570Z,98652.12
2018-07-28T23:42:34.942Z,98639.39
2018-07-28T23:45:03.338Z,98637.98
2018-07-28T23:47:31.626Z,98643.78
2018-07-28T23:49:59.968Z,98647.45
2018-07-28T23:52:28.290Z,98644.08
2018-07-28T23:54:56.654Z,98649.30
2018-07-28T23:57:25.023Z,98656.54
2018-07-28T23:59:53.491Z,98654.75
